Terminal Aerodrome Forecast
Issued by NWS Jackson, MS

Home | Current Version | Previous Version | Text Only | Print | Product List | Glossary On
Versions: 1 2 3 4 5 6 7 8 9 10 11 12 13 14 15 16 17
727
FTUS44 KJAN 180619 RRA
TAFMEI
TAF
KMEI 180619Z 1806/1906 VRB03KT P6SM SCT020
     FM180900 19003KT 4SM BR OVC007
     FM181700 12004KT P6SM BKN011
     FM181900 12004KT P6SM SCT015 BKN100=

USA.gov is the U.S. government's official web portal to all federal, state and local government web resources and services.